createdAt,value
2018-12-21T00:02:15.600Z,171.30
2018-12-21T00:04:44.132Z,150.83
2018-12-21T00:07:19.332Z,155.30
2018-12-21T00:09:47.893Z,185.27
2018-12-21T00:12:16.437Z,150.70
2018-12-21T00:14:45.070Z,152.50
2018-12-21T00:17:13.709Z,162.40
2018-12-21T00:19:42.256Z,150.10
2018-12-21T00:22:10.812Z,291.03
2018-12-21T00:24:39.342Z,552.07
2018-12-21T00:27:07.860Z,269.50
2018-12-21T00:29:36.404Z,223.57
2018-12-21T00:32:10.177Z,186.70
2018-12-21T00:34:43.875Z,186.67
2018-12-21T00:37:17.664Z,221.80
2018-12-21T00:39:51.636Z,152.73
2018-12-21T00:42:41.256Z,136.43
2018-12-21T00:45:14.038Z,165.80
2018-12-21T00:47:43.004Z,147.00
2018-12-21T00:50:11.552Z,159.70
2018-12-21T00:52:40.100Z,140.10
2018-12-21T00:55:08.872Z,126.43
2018-12-21T00:57:37.536Z,144.43
2018-12-21T01:00:06.812Z,153.47
2018-12-21T01:02:35.364Z,132.40
2018-12-21T01:05:04.157Z,147.60
2018-12-21T01:07:32.680Z,140.80
2018-12-21T01:10:01.963Z,121.10
2018-12-21T01:12:30.747Z,136.90
2018-12-21T01:14:59.279Z,125.93
2018-12-21T01:17:27.867Z,128.87
2018-12-21T01:19:56.595Z,118.37
2018-12-21T01:22:39.876Z,138.23
2018-12-21T01:25:08.523Z,139.30
2018-12-21T01:27:37.193Z,141.17
2018-12-21T01:30:06.487Z,164.80
2018-12-21T01:32:35.135Z,746.77
2018-12-21T01:35:03.929Z,249.40
2018-12-21T01:37:32.479Z,307.53
2018-12-21T01:40:01.023Z,190.73
2018-12-21T01:42:29.575Z,216.73
2018-12-21T01:44:58.111Z,162.83
2018-12-21T01:47:26.655Z,166.30
2018-12-21T01:49:55.235Z,145.97
2018-12-21T01:52:23.917Z,157.47
2018-12-21T01:54:52.566Z,157.77
2018-12-21T01:57:21.112Z,154.60
2018-12-21T01:59:49.663Z,157.60
2018-12-21T02:02:18.227Z,130.63
2018-12-21T02:04:46.775Z,150.07
2018-12-21T02:07:15.571Z,147.20
2018-12-21T02:09:44.120Z,121.70
2018-12-21T02:12:12.683Z,112.97
2018-12-21T02:14:41.255Z,155.63
2018-12-21T02:17:09.787Z,121.40
2018-12-21T02:19:38.347Z,120.47
2018-12-21T02:22:06.903Z,120.90
2018-12-21T02:24:35.455Z,122.20
2018-12-21T02:27:04.198Z,132.50
2018-12-21T02:30:04.036Z,132.97
2018-12-21T02:32:32.578Z,116.03
2018-12-21T02:35:01.130Z,136.40
2018-12-21T02:37:29.650Z,152.33
2018-12-21T02:39:58.180Z,402.63
2018-12-21T02:42:26.740Z,209.27
2018-12-21T02:44:55.268Z,192.23
2018-12-21T02:47:23.807Z,164.47
2018-12-21T02:49:52.337Z,156.27
2018-12-21T02:52:20.867Z,131.27
2018-12-21T02:54:49.398Z,122.67
2018-12-21T02:57:17.930Z,132.43
2018-12-21T02:59:46.451Z,130.73
2018-12-21T03:02:15.007Z,148.43
2018-12-21T03:04:43.538Z,144.77
2018-12-21T03:07:12.086Z,125.40
2018-12-21T03:09:40.636Z,116.00
2018-12-21T03:12:09.134Z,114.63
2018-12-21T03:14:37.640Z,124.43
2018-12-21T03:17:06.302Z,112.23
2018-12-21T03:19:38.311Z,103.50
2018-12-21T03:22:14.638Z,115.70
2018-12-21T03:24:37.418Z,114.17
2018-12-21T03:27:05.951Z,146.23
2018-12-21T03:29:34.522Z,151.57
2018-12-21T03:32:03.056Z,163.67
2018-12-21T03:34:31.626Z,139.30
2018-12-21T03:37:00.163Z,204.67
2018-12-21T03:39:28.738Z,285.17
2018-12-21T03:41:57.300Z,231.27
2018-12-21T03:44:25.831Z,184.63
2018-12-21T03:46:54.374Z,156.40
2018-12-21T03:49:22.929Z,140.17
2018-12-21T03:51:51.434Z,167.87
2018-12-21T03:54:19.959Z,198.50
2018-12-21T03:56:48.525Z,158.10
2018-12-21T03:59:17.047Z,166.73
2018-12-21T04:01:45.570Z,140.33
2018-12-21T04:04:14.098Z,146.03
2018-12-21T04:06:42.646Z,151.43
2018-12-21T04:09:11.181Z,192.00
2018-12-21T04:11:39.848Z,128.30
2018-12-21T04:14:08.369Z,131.70
2018-12-21T04:16:36.924Z,133.87
2018-12-21T04:19:05.466Z,121.27
2018-12-21T04:21:33.986Z,127.80
2018-12-21T04:24:02.562Z,124.20
2018-12-21T04:26:31.103Z,156.87
2018-12-21T04:28:59.664Z,145.97
2018-12-21T04:31:28.243Z,151.00
2018-12-21T04:33:56.781Z,137.83
2018-12-21T04:36:25.321Z,144.73
2018-12-21T04:38:53.878Z,265.10
2018-12-21T04:41:22.681Z,224.63
2018-12-21T04:43:51.234Z,278.00
2018-12-21T04:46:19.830Z,356.90
2018-12-21T04:48:48.469Z,190.30
2018-12-21T04:51:17.023Z,145.27
2018-12-21T04:53:45.588Z,119.37
2018-12-21T04:56:14.117Z,139.10
2018-12-21T04:58:42.647Z,133.73
2018-12-21T05:01:11.221Z,167.80
2018-12-21T05:03:39.749Z,121.37
2018-12-21T05:06:08.320Z,165.37
2018-12-21T05:08:36.901Z,210.70
2018-12-21T05:11:05.589Z,178.03
2018-12-21T05:13:34.188Z,171.50
2018-12-21T05:16:02.789Z,181.27
2018-12-21T05:18:31.452Z,169.30
2018-12-21T05:20:59.993Z,154.17
2018-12-21T05:23:28.524Z,124.83
2018-12-21T05:25:57.091Z,138.23
2018-12-21T05:28:25.672Z,148.17
2018-12-21T05:30:54.228Z,128.90
2018-12-21T05:33:22.768Z,147.70
2018-12-21T05:35:51.337Z,126.47
2018-12-21T05:38:19.879Z,114.27
2018-12-21T05:40:48.437Z,115.60
2018-12-21T05:43:16.990Z,85.67
2018-12-21T05:45:45.546Z,102.03
2018-12-21T05:48:14.116Z,89.40
2018-12-21T05:50:42.616Z,105.70
2018-12-21T05:53:11.169Z,113.97
2018-12-21T05:55:39.741Z,126.23
2018-12-21T05:58:08.323Z,136.07
2018-12-21T06:00:37.008Z,133.53
2018-12-21T06:03:05.532Z,147.30
2018-12-21T06:05:34.420Z,144.50
2018-12-21T06:08:02.983Z,144.30
2018-12-21T06:10:31.521Z,163.80
2018-12-21T06:13:00.059Z,163.17
2018-12-21T06:15:28.599Z,212.03
2018-12-21T06:17:57.163Z,229.00
2018-12-21T06:20:25.859Z,262.17
2018-12-21T06:22:54.536Z,255.17
2018-12-21T06:25:23.224Z,274.90
2018-12-21T06:27:51.802Z,791.77
2018-12-21T06:30:20.335Z,746.43
2018-12-21T06:32:48.895Z,563.33
2018-12-21T06:35:17.555Z,348.07
2018-12-21T06:37:46.103Z,190.97
2018-12-21T06:43:46.335Z,185.93
2018-12-21T06:46:29.511Z,170.90
2018-12-21T06:48:58.067Z,247.50
2018-12-21T06:51:26.639Z,260.53
2018-12-21T06:53:55.171Z,177.40
2018-12-21T06:56:23.735Z,148.23
2018-12-21T06:58:52.273Z,197.03
2018-12-21T07:01:20.853Z,220.17
2018-12-21T07:03:49.426Z,205.83
2018-12-21T07:06:17.974Z,187.83
2018-12-21T07:08:46.491Z,162.30
2018-12-21T07:11:15.043Z,200.10
2018-12-21T07:13:43.562Z,240.73
2018-12-21T07:16:12.114Z,202.80
2018-12-21T07:18:40.666Z,215.07
2018-12-21T07:21:09.234Z,290.47
2018-12-21T07:23:37.807Z,297.07
2018-12-21T07:26:06.374Z,231.20
2018-12-21T07:28:34.922Z,200.47
2018-12-21T07:31:03.542Z,202.50
2018-12-21T07:33:32.107Z,270.37
2018-12-21T07:36:08.304Z,249.07
2018-12-21T07:38:31.406Z,199.10
2018-12-21T07:40:59.962Z,181.13
2018-12-21T07:43:28.502Z,157.07
2018-12-21T07:45:57.037Z,163.40
2018-12-21T07:48:25.582Z,166.00
2018-12-21T07:50:54.234Z,163.03
2018-12-21T07:53:22.762Z,163.77
2018-12-21T07:55:51.297Z,169.07
2018-12-21T07:58:19.806Z,159.90
2018-12-21T08:00:48.333Z,148.77
2018-12-21T08:03:16.865Z,140.90
2018-12-21T08:05:45.453Z,133.73
2018-12-21T08:08:13.997Z,142.20
2018-12-21T08:10:42.548Z,162.17
2018-12-21T08:13:11.096Z,125.27
2018-12-21T08:15:39.664Z,132.37
2018-12-21T08:18:08.225Z,123.03
2018-12-21T08:20:36.776Z,127.77
2018-12-21T08:23:05.324Z,114.37
2018-12-21T08:25:33.980Z,124.80
2018-12-21T08:28:02.521Z,119.10
2018-12-21T08:30:31.044Z,130.80
2018-12-21T08:32:59.568Z,122.17
2018-12-21T08:35:28.111Z,130.47
2018-12-21T08:37:56.660Z,127.83
2018-12-21T08:40:25.196Z,111.50
2018-12-21T08:42:53.734Z,103.87
2018-12-21T08:45:22.293Z,110.53
2018-12-21T08:47:50.844Z,98.03
2018-12-21T08:50:19.404Z,99.87
2018-12-21T08:52:47.948Z,88.23
2018-12-21T08:55:16.504Z,90.37
2018-12-21T08:57:45.048Z,76.47
2018-12-21T09:00:13.652Z,90.77
2018-12-21T09:02:42.181Z,89.63
2018-12-21T09:05:10.942Z,74.90
2018-12-21T09:07:39.488Z,80.00
2018-12-21T09:10:09.960Z,142.83
2018-12-21T09:12:38.770Z,230.17
2018-12-21T09:15:10.663Z,248.20
2018-12-21T09:17:39.213Z,210.13
2018-12-21T09:20:09.531Z,182.67
2018-12-21T09:22:38.046Z,333.60
2018-12-21T09:25:06.687Z,120.47
2018-12-21T09:27:35.365Z,118.53
2018-12-21T09:30:18.919Z,194.30
2018-12-21T09:32:47.459Z,175.83
2018-12-21T09:35:16.007Z,95.67
2018-12-21T09:37:44.574Z,101.23
2018-12-21T09:40:13.358Z,116.80
2018-12-21T09:42:41.894Z,154.10
2018-12-21T09:45:10.645Z,102.00
2018-12-21T09:47:39.187Z,95.67
2018-12-21T09:50:09.371Z,101.80
2018-12-21T09:52:37.922Z,178.80
2018-12-21T09:55:07.554Z,167.53
2018-12-21T09:57:36.090Z,166.40
2018-12-21T10:00:05.982Z,166.07
2018-12-21T10:02:35.800Z,121.00
2018-12-21T10:05:05.290Z,109.90
2018-12-21T10:07:33.882Z,137.00
2018-12-21T10:10:02.405Z,185.87
2018-12-21T10:12:30.931Z,138.20
2018-12-21T10:14:59.446Z,161.53
2018-12-21T10:17:27.962Z,146.97
2018-12-21T10:19:58.213Z,139.80
2018-12-21T10:22:26.734Z,120.70
2018-12-21T10:24:55.266Z,134.83
2018-12-21T10:27:23.809Z,197.70
2018-12-21T10:29:52.361Z,174.57
2018-12-21T10:32:23.897Z,158.10
2018-12-21T10:34:52.425Z,96.57
2018-12-21T10:37:20.982Z,150.13
2018-12-21T10:39:49.541Z,143.07
2018-12-21T10:42:18.077Z,127.70
2018-12-21T10:44:46.644Z,136.87
2018-12-21T10:47:15.205Z,142.63
2018-12-21T10:49:43.780Z,110.63
2018-12-21T10:52:12.357Z,110.03
2018-12-21T10:54:40.889Z,103.60
2018-12-21T10:57:09.421Z,96.20
2018-12-21T10:59:43.320Z,119.40
2018-12-21T11:02:08.577Z,121.27
2018-12-21T11:04:37.137Z,111.83
2018-12-21T11:07:05.777Z,111.83
2018-12-21T11:09:34.317Z,139.57
2018-12-21T11:12:02.957Z,136.70
2018-12-21T11:14:31.504Z,104.00
2018-12-21T11:17:00.061Z,167.77
2018-12-21T11:19:28.608Z,190.20
2018-12-21T11:21:57.143Z,139.60
2018-12-21T11:24:25.711Z,113.73
2018-12-21T11:26:54.348Z,137.00
2018-12-21T11:29:22.895Z,115.60
2018-12-21T11:31:51.420Z,111.07
2018-12-21T11:34:19.936Z,116.10
2018-12-21T11:36:48.462Z,120.27
2018-12-21T11:39:17.021Z,113.43
2018-12-21T11:41:45.589Z,104.50
2018-12-21T11:46:57.000Z,90.57
2018-12-21T11:49:25.533Z,93.90
2018-12-21T11:51:54.160Z,116.60
2018-12-21T11:54:22.746Z,114.27
2018-12-21T11:56:51.313Z,117.90
2018-12-21T11:59:19.952Z,131.17
2018-12-21T12:01:48.520Z,111.63
2018-12-21T12:04:20.685Z,106.53
2018-12-21T12:06:49.228Z,84.13
2018-12-21T12:09:17.781Z,88.83
2018-12-21T12:11:46.327Z,83.37
2018-12-21T12:14:14.848Z,76.63
2018-12-21T12:16:43.416Z,72.03
2018-12-21T12:19:11.975Z,76.80
2018-12-21T12:21:40.574Z,78.73
2018-12-21T12:24:09.207Z,96.40
2018-12-21T12:26:44.398Z,65.20
2018-12-21T12:29:08.328Z,71.83
2018-12-21T12:31:36.981Z,71.93
2018-12-21T12:34:05.531Z,92.43
2018-12-21T12:36:34.091Z,90.83
2018-12-21T12:39:03.268Z,100.67
2018-12-21T12:41:31.799Z,95.20
2018-12-21T12:44:00.327Z,98.23
2018-12-21T12:46:28.995Z,171.47
2018-12-21T12:48:57.541Z,94.37
2018-12-21T12:51:26.075Z,74.57
2018-12-21T12:53:54.588Z,54.77
2018-12-21T12:56:23.127Z,76.53
2018-12-21T12:58:51.655Z,66.03
2018-12-21T13:01:20.194Z,95.90
2018-12-21T13:03:48.720Z,78.70
2018-12-21T13:06:17.259Z,87.20
2018-12-21T13:08:45.803Z,86.60
2018-12-21T13:11:14.343Z,72.60
2018-12-21T13:13:42.893Z,73.03
2018-12-21T13:16:11.563Z,105.23
2018-12-21T13:19:10.971Z,80.80
2018-12-21T13:21:39.507Z,78.33
2018-12-21T13:24:08.030Z,78.17
2018-12-21T13:26:36.538Z,69.17
2018-12-21T13:29:05.290Z,163.90
2018-12-21T13:31:33.827Z,84.83
2018-12-21T13:34:02.399Z,78.10
2018-12-21T13:36:30.938Z,601.13
2018-12-21T13:38:59.495Z,242.37
2018-12-21T13:41:28.071Z,321.10
2018-12-21T13:43:56.653Z,204.70
2018-12-21T13:46:25.203Z,151.83
2018-12-21T13:48:53.750Z,96.53
2018-12-21T13:51:22.422Z,82.93
2018-12-21T13:53:51.106Z,83.50
2018-12-21T13:56:19.631Z,83.37
2018-12-21T13:58:48.163Z,96.47
2018-12-21T14:01:19.799Z,103.43
2018-12-21T14:03:48.370Z,148.53
2018-12-21T14:06:16.902Z,160.80
2018-12-21T14:08:45.451Z,196.77
2018-12-21T14:11:14.930Z,161.07
2018-12-21T14:13:43.452Z,250.23
2018-12-21T14:16:11.979Z,296.53
2018-12-21T14:18:40.526Z,208.80
2018-12-21T14:21:09.080Z,391.97
2018-12-21T14:23:38.350Z,274.77
2018-12-21T14:26:07.027Z,152.97
2018-12-21T14:28:35.546Z,166.23
2018-12-21T14:31:04.071Z,177.67
2018-12-21T14:33:32.598Z,137.40
2018-12-21T14:36:01.126Z,113.43
2018-12-21T14:38:29.666Z,141.73
2018-12-21T14:40:58.177Z,266.00
2018-12-21T14:43:26.717Z,126.40
2018-12-21T14:45:55.254Z,163.70
2018-12-21T14:48:23.801Z,129.27
2018-12-21T14:50:52.357Z,154.03
2018-12-21T14:53:20.917Z,153.07
2018-12-21T14:55:49.477Z,174.63
2018-12-21T14:58:18.005Z,163.40
2018-12-21T15:00:46.569Z,206.80
2018-12-21T15:03:15.147Z,119.63
2018-12-21T15:05:43.657Z,116.97
2018-12-21T15:08:12.201Z,193.03
2018-12-21T15:10:40.738Z,152.50
2018-12-21T15:13:09.262Z,145.40
2018-12-21T15:15:37.794Z,150.10
2018-12-21T15:18:06.338Z,130.23
2018-12-21T15:20:34.855Z,126.73
2018-12-21T15:23:03.465Z,120.63
2018-12-21T15:25:32.190Z,161.27
2018-12-21T15:28:00.710Z,131.80
2018-12-21T15:30:29.257Z,108.10
2018-12-21T15:32:57.808Z,104.93
2018-12-21T15:35:26.351Z,105.90
2018-12-21T15:37:54.882Z,91.43
2018-12-21T15:40:23.420Z,84.03
2018-12-21T15:42:51.962Z,88.37
2018-12-21T15:45:20.506Z,121.77
2018-12-21T15:47:49.030Z,166.93
2018-12-21T15:50:17.570Z,121.23
2018-12-21T15:52:46.119Z,124.07
2018-12-21T15:55:14.679Z,223.50
2018-12-21T15:57:43.194Z,256.77
2018-12-21T16:00:14.159Z,211.77
2018-12-21T16:02:45.137Z,178.10
2018-12-21T16:05:13.694Z,126.33
2018-12-21T16:07:42.197Z,105.30
2018-12-21T16:10:11.501Z,93.47
2018-12-21T16:12:40.066Z,89.10
2018-12-21T16:15:09.142Z,92.20
2018-12-21T16:17:37.687Z,85.97
2018-12-21T16:20:09.562Z,100.83
2018-12-21T16:22:42.327Z,107.60
2018-12-21T16:25:08.669Z,102.37
2018-12-21T16:27:37.178Z,136.83
2018-12-21T16:30:07.577Z,126.53
2018-12-21T16:32:36.121Z,97.23
2018-12-21T16:35:04.937Z,99.60
2018-12-21T16:37:33.478Z,92.57
2018-12-21T16:40:02.373Z,98.60
2018-12-21T16:42:31.021Z,107.17
2018-12-21T16:44:59.540Z,96.07
2018-12-21T16:47:28.103Z,103.63
2018-12-21T16:49:56.639Z,119.33
2018-12-21T16:52:25.165Z,96.03
2018-12-21T16:54:53.716Z,112.20
2018-12-21T16:57:22.351Z,95.87
2018-12-21T16:59:50.872Z,97.27
2018-12-21T17:02:19.433Z,102.07
2018-12-21T17:04:47.950Z,110.97
2018-12-21T17:07:16.488Z,99.87
2018-12-21T17:09:45.015Z,87.70
2018-12-21T17:12:13.577Z,99.23
2018-12-21T17:14:42.113Z,109.60
2018-12-21T17:17:10.633Z,105.97
2018-12-21T17:19:39.241Z,109.13
2018-12-21T17:22:07.815Z,100.80
2018-12-21T17:24:36.356Z,108.17
2018-12-21T17:27:04.988Z,112.67
2018-12-21T17:29:33.605Z,95.57
2018-12-21T17:32:02.336Z,163.67
2018-12-21T17:34:30.844Z,90.97
2018-12-21T17:36:59.356Z,99.00
2018-12-21T17:39:27.928Z,118.80
2018-12-21T17:41:56.596Z,131.80
2018-12-21T17:44:25.130Z,123.27
2018-12-21T17:46:53.624Z,284.63
2018-12-21T17:49:22.117Z,136.27
2018-12-21T17:51:50.634Z,134.53
2018-12-21T17:54:19.144Z,116.60
2018-12-21T17:56:47.647Z,108.67
2018-12-21T17:59:16.172Z,193.90
2018-12-21T18:01:44.763Z,123.17
2018-12-21T18:04:20.371Z,260.13
2018-12-21T18:06:48.896Z,157.07
2018-12-21T18:09:17.675Z,154.13
2018-12-21T18:11:46.236Z,119.07
2018-12-21T18:14:14.775Z,112.83
2018-12-21T18:16:43.307Z,137.07
2018-12-21T18:19:11.847Z,143.57
2018-12-21T18:22:04.880Z,139.70
2018-12-21T18:24:33.435Z,164.47
2018-12-21T18:27:02.079Z,112.00
2018-12-21T18:29:31.796Z,139.07
2018-12-21T18:32:08.871Z,330.20
2018-12-21T18:34:38.227Z,115.27
2018-12-21T18:37:09.124Z,85.10
2018-12-21T18:39:37.683Z,123.83
2018-12-21T18:42:06.221Z,94.47
2018-12-21T18:44:34.768Z,107.33
2018-12-21T18:47:03.479Z,114.03
2018-12-21T18:49:32.007Z,103.33
2018-12-21T18:52:00.579Z,105.90
2018-12-21T18:54:29.424Z,95.13
2018-12-21T18:57:00.691Z,97.73
2018-12-21T18:59:29.214Z,94.70
2018-12-21T19:01:57.735Z,81.67
2018-12-21T19:04:26.347Z,80.47
2018-12-21T19:06:54.845Z,71.87
2018-12-21T19:09:23.610Z,77.97
2018-12-21T19:11:52.136Z,72.13
2018-12-21T19:14:20.748Z,72.57
2018-12-21T19:16:49.276Z,78.17
2018-12-21T19:19:18.519Z,68.40
2018-12-21T19:21:47.285Z,101.97
2018-12-21T19:24:15.942Z,92.43
2018-12-21T19:26:44.571Z,81.43
2018-12-21T19:29:13.087Z,106.20
2018-12-21T19:31:41.627Z,82.33
2018-12-21T19:34:10.178Z,77.90
2018-12-21T19:36:38.730Z,64.97
2018-12-21T19:39:09.354Z,61.30
2018-12-21T19:41:37.866Z,69.23
2018-12-21T19:44:06.402Z,85.20
2018-12-21T19:46:35.074Z,101.07
2018-12-21T19:49:03.594Z,76.07
2018-12-21T19:51:32.110Z,74.23
2018-12-21T19:54:00.850Z,74.37
2018-12-21T19:57:33.478Z,75.37
2018-12-21T20:00:02.007Z,96.43
2018-12-21T20:02:30.570Z,91.30
2018-12-21T20:04:59.121Z,97.27
2018-12-21T20:07:27.661Z,99.53
2018-12-21T20:09:57.065Z,100.57
2018-12-21T20:12:25.608Z,96.87
2018-12-21T20:14:54.166Z,114.03
2018-12-21T20:17:22.701Z,117.63
2018-12-21T20:19:51.221Z,111.40
2018-12-21T20:22:19.761Z,107.23
2018-12-21T20:24:48.317Z,107.37
2018-12-21T20:27:17.621Z,100.10
2018-12-21T20:29:46.489Z,99.23
2018-12-21T20:32:15.585Z,101.33
2018-12-21T20:34:44.141Z,93.93
2018-12-21T20:37:12.857Z,103.73
2018-12-21T20:39:44.328Z,105.87
2018-12-21T20:42:12.864Z,119.57
2018-12-21T20:44:41.592Z,101.83
2018-12-21T20:47:10.145Z,92.33
2018-12-21T20:49:38.696Z,94.20
2018-12-21T20:52:07.236Z,91.57
2018-12-21T20:54:35.933Z,123.03
2018-12-21T20:57:06.459Z,98.90
2018-12-21T20:59:35.027Z,91.10
2018-12-21T21:02:03.618Z,97.73
2018-12-21T21:04:32.175Z,108.40
2018-12-21T21:07:00.746Z,122.60
2018-12-21T21:09:29.295Z,113.20
2018-12-21T21:11:57.863Z,112.80
2018-12-21T21:14:26.407Z,146.07
2018-12-21T21:16:54.935Z,92.97
2018-12-21T21:19:24.655Z,87.53
2018-12-21T21:21:53.202Z,72.13
2018-12-21T21:24:21.867Z,197.27
2018-12-21T21:26:50.404Z,107.30
2018-12-21T21:29:18.926Z,99.77
2018-12-21T21:31:48.307Z,82.57
2018-12-21T21:34:16.870Z,75.40
2018-12-21T21:36:45.412Z,78.63
2018-12-21T21:39:13.948Z,82.10
2018-12-21T21:41:42.610Z,77.30
2018-12-21T21:44:11.263Z,93.17
2018-12-21T21:46:39.792Z,78.37
2018-12-21T21:49:08.314Z,76.17
2018-12-21T21:51:36.947Z,118.43
2018-12-21T21:54:05.469Z,80.57
2018-12-21T21:56:33.963Z,89.63
2018-12-21T21:59:02.494Z,79.93
2018-12-21T22:01:31.059Z,97.30
2018-12-21T22:04:01.277Z,93.30
2018-12-21T22:06:29.826Z,91.00
2018-12-21T22:08:58.334Z,76.40
2018-12-21T22:11:26.878Z,84.37
2018-12-21T22:13:55.435Z,95.70
2018-12-21T22:16:23.986Z,97.97
2018-12-21T22:18:52.526Z,87.33
2018-12-21T22:21:21.082Z,73.60
2018-12-21T22:23:49.742Z,93.13
2018-12-21T22:26:18.273Z,73.17
2018-12-21T22:28:46.805Z,75.03
2018-12-21T22:31:15.341Z,66.43
2018-12-21T22:33:43.890Z,67.53
2018-12-21T22:36:12.432Z,64.10
2018-12-21T22:38:41.009Z,68.53
2018-12-21T22:41:09.541Z,61.63
2018-12-21T22:43:38.101Z,68.60
2018-12-21T22:46:06.916Z,82.47
2018-12-21T22:48:35.744Z,85.07
2018-12-21T22:51:04.420Z,62.20
2018-12-21T22:53:32.973Z,66.30
2018-12-21T22:56:01.509Z,66.63
2018-12-21T22:58:30.024Z,64.23
2018-12-21T23:00:58.704Z,63.60
2018-12-21T23:03:27.244Z,62.57
2018-12-21T23:05:55.768Z,61.77
2018-12-21T23:08:24.332Z,59.90
2018-12-21T23:10:52.888Z,79.80
2018-12-21T23:13:21.403Z,102.50
2018-12-21T23:15:49.959Z,88.43
2018-12-21T23:18:18.491Z,77.67
2018-12-21T23:20:47.191Z,88.43
2018-12-21T23:23:15.948Z,81.63
2018-12-21T23:25:44.491Z,93.67
2018-12-21T23:28:13.027Z,91.37
2018-12-21T23:30:41.558Z,82.20
2018-12-21T23:33:10.120Z,92.90
2018-12-21T23:35:38.667Z,74.83
2018-12-21T23:38:07.214Z,93.37
2018-12-21T23:40:36.459Z,78.30
2018-12-21T23:43:05.007Z,75.97
2018-12-21T23:45:33.535Z,90.23
2018-12-21T23:48:02.087Z,71.73
2018-12-21T23:50:30.604Z,77.60
2018-12-21T23:52:59.191Z,74.43
2018-12-21T23:55:27.727Z,72.10
2018-12-21T23:57:56.253Z,78.17
